createdAt,value
2022-10-16T00:01:35.669Z,6.30
2022-10-16T00:04:02.049Z,7.00
2022-10-16T00:06:32.502Z,6.75
2022-10-16T00:08:59.264Z,7.07
2022-10-16T00:11:30.354Z,6.38
2022-10-16T00:13:58.196Z,5.60
2022-10-16T00:16:24.563Z,6.65
2022-10-16T00:18:50.891Z,6.55
2022-10-16T00:21:19.013Z,7.28
2022-10-16T00:23:45.406Z,6.80
2022-10-16T00:26:13.640Z,6.85
2022-10-16T00:28:40.390Z,6.47
2022-10-16T00:31:08.438Z,7.10
2022-10-16T00:33:35.482Z,6.90
2022-10-16T00:36:02.763Z,7.85
2022-10-16T00:38:29.224Z,7.43
2022-10-16T00:40:55.602Z,7.68
2022-10-16T00:43:36.274Z,7.30
2022-10-16T00:46:03.499Z,8.00
2022-10-16T00:48:29.991Z,6.72
2022-10-16T00:50:57.089Z,7.47
2022-10-16T00:53:24.358Z,6.90
2022-10-16T00:55:52.633Z,5.97
2022-10-16T00:58:19.000Z,6.32
2022-10-16T01:00:45.398Z,5.75
2022-10-16T01:03:25.798Z,6.40
2022-10-16T01:06:16.052Z,5.72
2022-10-16T01:09:01.338Z,5.47
2022-10-16T01:11:32.236Z,5.65
2022-10-16T01:14:00.850Z,5.13
2022-10-16T01:16:36.773Z,5.10
2022-10-16T01:19:09.192Z,5.38
2022-10-16T01:21:44.489Z,4.38
2022-10-16T01:24:10.805Z,4.80
2022-10-16T01:26:42.988Z,4.20
2022-10-16T01:29:14.542Z,3.85
2022-10-16T01:31:48.281Z,3.85
2022-10-16T01:34:16.589Z,3.67
2022-10-16T01:36:46.379Z,4.20
2022-10-16T01:39:13.566Z,3.70
2022-10-16T01:41:48.044Z,3.53
2022-10-16T01:44:19.766Z,3.38
2022-10-16T01:46:48.179Z,3.83
2022-10-16T01:49:15.393Z,3.28
2022-10-16T01:51:45.082Z,3.92
2022-10-16T01:54:12.734Z,3.75
2022-10-16T01:56:40.271Z,3.28
2022-10-16T01:59:08.157Z,3.45
2022-10-16T02:01:36.145Z,3.78
2022-10-16T02:04:05.389Z,2.90
2022-10-16T02:06:31.822Z,3.13
2022-10-16T02:08:58.253Z,3.30
2022-10-16T02:11:25.146Z,3.50
2022-10-16T02:13:53.729Z,3.20
2022-10-16T02:16:20.132Z,4.10
2022-10-16T02:18:46.506Z,3.35
2022-10-16T02:21:31.007Z,3.05
2022-10-16T02:24:26.546Z,3.03
2022-10-16T02:27:04.237Z,2.70
2022-10-16T02:29:31.279Z,3.00
2022-10-16T02:32:02.951Z,3.00
2022-10-16T02:34:31.068Z,3.53
2022-10-16T02:36:58.084Z,2.65
2022-10-16T02:39:24.920Z,2.88
2022-10-16T02:41:54.124Z,2.75
2022-10-16T02:44:20.512Z,2.85
2022-10-16T02:46:46.906Z,2.75
2022-10-16T02:49:13.261Z,3.60
2022-10-16T02:51:39.612Z,3.75
2022-10-16T02:54:06.015Z,3.03
2022-10-16T02:56:32.505Z,2.65
2022-10-16T02:58:58.900Z,3.00
2022-10-16T03:01:25.452Z,3.13
2022-10-16T03:03:51.885Z,2.55
2022-10-16T03:06:18.266Z,2.70
2022-10-16T03:08:44.619Z,2.33
2022-10-16T03:11:10.961Z,2.70
2022-10-16T03:13:37.329Z,3.15
2022-10-16T03:16:03.854Z,3.42
2022-10-16T03:18:30.282Z,2.72
2022-10-16T03:20:56.698Z,2.63
2022-10-16T03:23:23.074Z,3.58
2022-10-16T03:25:49.536Z,2.38
2022-10-16T03:28:16.052Z,2.53
2022-10-16T03:30:43.537Z,4.35
2022-10-16T03:33:09.929Z,2.83
2022-10-16T03:35:36.602Z,2.40
2022-10-16T03:38:03.090Z,2.78
2022-10-16T03:40:29.543Z,3.10
2022-10-16T03:42:58.158Z,2.70
2022-10-16T03:45:24.801Z,2.78
2022-10-16T03:47:51.131Z,3.63
2022-10-16T03:50:17.526Z,3.40
2022-10-16T03:52:43.908Z,3.40
2022-10-16T03:55:10.299Z,3.05
2022-10-16T03:57:36.639Z,2.92
2022-10-16T04:00:10.908Z,2.90
2022-10-16T04:02:37.291Z,3.08
2022-10-16T04:05:03.810Z,3.20
2022-10-16T04:07:30.153Z,2.85
2022-10-16T04:09:56.709Z,3.17
2022-10-16T04:12:23.070Z,3.03
2022-10-16T04:14:49.387Z,2.55
2022-10-16T04:17:15.742Z,3.47
2022-10-16T04:19:42.135Z,3.55
2022-10-16T04:22:09.906Z,3.60
2022-10-16T04:24:36.244Z,3.78
2022-10-16T04:27:02.579Z,2.97
2022-10-16T04:29:29.134Z,3.00
2022-10-16T04:31:55.592Z,3.38
2022-10-16T04:34:21.991Z,3.38
2022-10-16T04:36:50.108Z,3.22
2022-10-16T04:39:16.881Z,3.53
2022-10-16T04:41:43.210Z,4.03
2022-10-16T04:44:09.794Z,2.80
2022-10-16T04:46:36.164Z,3.75
2022-10-16T04:49:02.556Z,3.30
2022-10-16T04:51:29.123Z,3.50
2022-10-16T04:53:55.997Z,3.75
2022-10-16T04:56:22.805Z,3.28
2022-10-16T04:58:49.265Z,3.35
2022-10-16T05:01:15.654Z,2.63
2022-10-16T05:03:45.977Z,3.20
2022-10-16T05:06:12.326Z,3.55
2022-10-16T05:08:38.749Z,2.80
2022-10-16T05:11:05.138Z,3.05
2022-10-16T05:13:31.481Z,3.28
2022-10-16T05:15:58.181Z,3.08
2022-10-16T05:18:24.537Z,2.78
2022-10-16T05:20:52.925Z,3.55
2022-10-16T05:23:19.251Z,3.13
2022-10-16T05:25:52.675Z,3.65
2022-10-16T05:28:19.048Z,3.15
2022-10-16T05:30:45.466Z,3.00
2022-10-16T05:33:11.856Z,2.65
2022-10-16T05:35:38.187Z,2.95
2022-10-16T05:38:04.515Z,3.13
2022-10-16T05:40:30.840Z,2.85
2022-10-16T05:42:57.270Z,3.03
2022-10-16T05:45:23.600Z,2.63
2022-10-16T05:47:49.948Z,3.00
2022-10-16T05:50:16.284Z,3.00
2022-10-16T05:52:42.660Z,3.30
2022-10-16T05:55:09.158Z,3.05
2022-10-16T05:57:35.515Z,3.15
2022-10-16T06:00:01.921Z,4.00
2022-10-16T06:02:28.242Z,4.03
2022-10-16T06:04:54.911Z,3.67
2022-10-16T06:07:22.017Z,3.88
2022-10-16T06:09:54.343Z,3.83
2022-10-16T06:12:20.740Z,3.60
2022-10-16T06:14:50.210Z,3.85
2022-10-16T06:17:16.717Z,3.40
2022-10-16T06:19:43.060Z,4.18
2022-10-16T06:22:09.440Z,3.95
2022-10-16T06:24:35.825Z,3.88
2022-10-16T06:27:02.193Z,4.45
2022-10-16T06:29:28.554Z,4.95
2022-10-16T06:31:54.896Z,4.32
2022-10-16T06:34:21.272Z,5.05
2022-10-16T06:36:51.808Z,4.78
2022-10-16T06:39:18.237Z,4.15
2022-10-16T06:41:44.564Z,4.13
2022-10-16T06:44:11.018Z,4.32
2022-10-16T06:46:37.711Z,3.92
2022-10-16T06:49:04.131Z,5.15
2022-10-16T06:51:32.254Z,4.30
2022-10-16T06:54:03.318Z,4.25
2022-10-16T06:56:32.042Z,5.20
2022-10-16T06:58:58.856Z,4.53
2022-10-16T07:01:26.923Z,5.72
2022-10-16T07:03:53.611Z,4.88
2022-10-16T07:06:20.875Z,4.43
2022-10-16T07:08:47.647Z,4.57
2022-10-16T07:11:15.479Z,4.13
2022-10-16T07:13:42.611Z,4.68
2022-10-16T07:16:10.080Z,3.88
2022-10-16T07:18:37.436Z,5.85
2022-10-16T07:21:04.929Z,4.40
2022-10-16T07:23:31.268Z,4.57
2022-10-16T07:25:57.598Z,4.20
2022-10-16T07:28:24.226Z,5.10
2022-10-16T07:30:50.663Z,4.35
2022-10-16T07:33:17.127Z,4.40
2022-10-16T07:35:53.498Z,4.13
2022-10-16T07:38:22.227Z,3.88
2022-10-16T07:40:49.189Z,4.28
2022-10-16T07:43:15.911Z,3.92
2022-10-16T07:48:24.213Z,3.30
2022-10-16T07:50:50.554Z,3.10
2022-10-16T07:53:17.073Z,2.92
2022-10-16T07:55:43.413Z,3.25
2022-10-16T07:58:10.181Z,4.85
2022-10-16T08:00:37.290Z,3.28
2022-10-16T08:03:03.819Z,2.45
2022-10-16T08:05:32.821Z,2.55
2022-10-16T08:07:59.408Z,2.88
2022-10-16T08:10:26.710Z,2.40
2022-10-16T08:12:53.632Z,2.33
2022-10-16T08:15:20.384Z,2.30
2022-10-16T08:17:55.207Z,2.33
2022-10-16T08:20:21.581Z,2.08
2022-10-16T08:22:48.084Z,2.08
2022-10-16T08:25:14.450Z,1.88
2022-10-16T08:27:40.779Z,2.15
2022-10-16T08:30:07.475Z,1.90
2022-10-16T08:32:34.147Z,1.80
2022-10-16T08:35:00.675Z,1.70
2022-10-16T08:37:30.704Z,1.67
2022-10-16T08:39:57.110Z,1.77
2022-10-16T08:42:36.853Z,1.45
2022-10-16T08:45:03.167Z,1.65
2022-10-16T08:47:32.557Z,2.75
2022-10-16T08:50:02.373Z,2.63
2022-10-16T08:52:31.037Z,2.15
2022-10-16T08:54:57.637Z,2.17
2022-10-16T08:57:25.884Z,1.50
2022-10-16T08:59:52.607Z,1.92
2022-10-16T09:02:28.166Z,2.05
2022-10-16T09:04:58.102Z,2.10
2022-10-16T09:07:31.418Z,1.77
2022-10-16T09:10:00.753Z,1.85
2022-10-16T09:12:30.184Z,1.75
2022-10-16T09:15:05.749Z,1.70
2022-10-16T09:17:38.119Z,1.75
2022-10-16T09:20:18.101Z,2.20
2022-10-16T09:22:44.448Z,3.35
2022-10-16T09:25:12.466Z,1.55
2022-10-16T09:27:38.898Z,1.88
2022-10-16T09:30:16.378Z,1.88
2022-10-16T09:32:43.724Z,1.30
2022-10-16T09:35:15.365Z,2.00
2022-10-16T09:37:43.421Z,1.85
2022-10-16T09:40:14.055Z,1.67
2022-10-16T09:42:40.475Z,1.65
2022-10-16T09:45:07.790Z,1.92
2022-10-16T09:47:40.774Z,1.30
2022-10-16T09:50:21.036Z,2.08
2022-10-16T09:52:47.505Z,1.60
2022-10-16T09:55:15.497Z,2.13
2022-10-16T09:57:54.768Z,2.65
2022-10-16T10:00:21.814Z,2.22
2022-10-16T10:02:48.491Z,2.40
2022-10-16T10:05:26.131Z,2.25
2022-10-16T10:07:56.706Z,1.98
2022-10-16T10:10:24.504Z,2.67
2022-10-16T10:12:50.927Z,2.47
2022-10-16T10:15:22.746Z,2.03
2022-10-16T10:17:50.394Z,2.00
2022-10-16T10:20:23.250Z,2.17
2022-10-16T10:22:49.693Z,2.20
2022-10-16T10:28:06.715Z,2.95
2022-10-16T10:30:42.409Z,1.92
2022-10-16T10:33:11.777Z,1.98
2022-10-16T10:35:44.266Z,2.13
2022-10-16T10:38:16.661Z,2.00
2022-10-16T10:40:57.600Z,2.40
2022-10-16T10:43:33.026Z,2.13
2022-10-16T10:46:03.952Z,2.08
2022-10-16T10:51:04.053Z,2.72
2022-10-16T10:53:31.790Z,1.90
2022-10-16T10:56:17.292Z,2.08
2022-10-16T10:58:55.597Z,2.13
2022-10-16T11:02:00.784Z,4.00
2022-10-16T11:04:42.370Z,2.30
2022-10-16T11:07:34.901Z,1.92
2022-10-16T11:10:14.222Z,2.58
2022-10-16T11:12:45.370Z,3.03
2022-10-16T11:15:23.213Z,4.00
2022-10-16T11:17:52.773Z,2.80
2022-10-16T11:20:22.776Z,3.00
2022-10-16T11:23:01.976Z,2.60
2022-10-16T11:25:32.235Z,2.50
2022-10-16T11:28:10.494Z,2.00
2022-10-16T11:30:48.707Z,2.05
2022-10-16T11:33:28.206Z,1.33
2022-10-16T11:35:58.151Z,2.65
2022-10-16T11:38:43.145Z,1.73
2022-10-16T11:41:23.525Z,1.40
2022-10-16T11:43:54.258Z,1.20
2022-10-16T11:46:22.994Z,1.98
2022-10-16T11:48:49.298Z,1.98
2022-10-16T11:51:18.848Z,2.50
2022-10-16T11:53:54.095Z,1.77
2022-10-16T11:56:21.639Z,2.72
2022-10-16T11:58:53.943Z,2.60
2022-10-16T12:01:20.424Z,2.90
2022-10-16T12:04:16.361Z,2.97
2022-10-16T12:06:49.685Z,2.85
2022-10-16T12:09:22.531Z,2.83
2022-10-16T12:11:49.038Z,2.05
2022-10-16T12:14:15.363Z,3.00
2022-10-16T12:16:56.722Z,2.00
2022-10-16T12:19:24.049Z,2.78
2022-10-16T12:21:51.393Z,4.68
2022-10-16T12:24:32.991Z,3.40
2022-10-16T12:26:59.795Z,2.08
2022-10-16T12:29:45.889Z,1.30
2022-10-16T12:32:46.880Z,0.85
2022-10-16T12:35:31.388Z,1.00
2022-10-16T12:38:08.730Z,0.82
2022-10-16T12:40:37.771Z,0.80
2022-10-16T12:43:36.969Z,0.93
2022-10-16T12:46:22.265Z,1.00
2022-10-16T12:49:05.591Z,1.20
2022-10-16T12:51:32.662Z,1.15
2022-10-16T12:54:17.451Z,1.63
2022-10-16T12:57:02.644Z,1.20
2022-10-16T12:59:42.946Z,1.17
2022-10-16T13:02:18.412Z,1.50
2022-10-16T13:04:53.869Z,0.90
2022-10-16T13:07:26.410Z,1.55
2022-10-16T13:10:16.002Z,1.42
2022-10-16T13:12:42.322Z,1.88
2022-10-16T13:15:23.045Z,1.83
2022-10-16T13:17:59.297Z,1.33
2022-10-16T13:20:34.904Z,1.30
2022-10-16T13:25:39.865Z,1.85
2022-10-16T13:28:10.862Z,1.85
2022-10-16T13:33:22.699Z,5.03
2022-10-16T13:35:51.519Z,1.92
2022-10-16T13:38:19.655Z,1.75
2022-10-16T13:40:55.250Z,2.00
2022-10-16T13:43:27.103Z,1.50
2022-10-16T13:45:58.572Z,1.35
2022-10-16T13:48:25.106Z,1.60
2022-10-16T13:51:00.783Z,1.40
2022-10-16T13:53:27.270Z,1.50
2022-10-16T13:55:53.642Z,1.40
2022-10-16T13:58:20.674Z,1.75
2022-10-16T14:00:54.686Z,2.72
2022-10-16T14:03:21.440Z,1.55
2022-10-16T14:05:55.633Z,2.30
2022-10-16T14:08:23.526Z,1.52
2022-10-16T14:13:28.953Z,2.25
2022-10-16T14:15:55.949Z,1.52
2022-10-16T14:18:28.361Z,1.60
2022-10-16T14:21:03.457Z,1.85
2022-10-16T14:23:31.277Z,1.58
2022-10-16T14:26:14.437Z,1.98
2022-10-16T14:28:41.871Z,1.65
2022-10-16T14:31:20.469Z,2.30
2022-10-16T14:33:46.904Z,1.88
2022-10-16T14:36:14.854Z,2.20
2022-10-16T14:38:43.191Z,1.88
2022-10-16T14:41:12.678Z,1.77
2022-10-16T14:43:40.868Z,2.50
2022-10-16T14:46:14.572Z,1.90
2022-10-16T14:48:42.374Z,1.77
2022-10-16T14:51:14.219Z,2.05
2022-10-16T14:53:40.565Z,2.13
2022-10-16T14:56:12.677Z,3.13
2022-10-16T14:58:41.022Z,1.73
2022-10-16T15:01:09.627Z,2.03
2022-10-16T15:03:36.219Z,2.08
2022-10-16T15:06:02.875Z,1.80
2022-10-16T15:08:29.306Z,1.73
2022-10-16T15:10:55.678Z,1.80
2022-10-16T15:13:22.018Z,1.30
2022-10-16T15:15:50.278Z,1.85
2022-10-16T15:18:21.103Z,1.60
2022-10-16T15:20:49.209Z,2.03
2022-10-16T15:23:16.961Z,1.65
2022-10-16T15:25:51.007Z,1.95
2022-10-16T15:28:18.472Z,1.73
2022-10-16T15:30:48.068Z,2.95
2022-10-16T15:33:16.409Z,2.42
2022-10-16T15:35:43.062Z,1.98
2022-10-16T15:38:13.032Z,2.50
2022-10-16T15:40:39.488Z,2.38
2022-10-16T15:43:05.904Z,1.88
2022-10-16T15:45:32.517Z,1.77
2022-10-16T15:47:59.009Z,2.78
2022-10-16T15:50:25.427Z,2.20
2022-10-16T15:52:52.296Z,2.85
2022-10-16T15:55:19.671Z,2.85
2022-10-16T15:57:46.600Z,2.33
2022-10-16T16:00:15.462Z,2.75
2022-10-16T16:02:42.664Z,2.42
2022-10-16T16:05:09.578Z,2.65
2022-10-16T16:07:36.887Z,2.60
2022-10-16T16:10:05.179Z,2.63
2022-10-16T16:12:32.056Z,2.30
2022-10-16T16:15:00.806Z,2.38
2022-10-16T16:17:31.291Z,4.20
2022-10-16T16:19:58.945Z,2.42
2022-10-16T16:22:25.666Z,2.30
2022-10-16T16:24:52.329Z,1.90
2022-10-16T16:27:20.621Z,2.15
2022-10-16T16:29:47.649Z,1.75
2022-10-16T16:32:14.201Z,1.88
2022-10-16T16:34:40.658Z,2.03
2022-10-16T16:37:08.630Z,2.25
2022-10-16T16:39:35.597Z,2.72
2022-10-16T16:42:03.876Z,3.47
2022-10-16T16:44:30.275Z,2.78
2022-10-16T16:46:56.689Z,2.13
2022-10-16T16:49:23.119Z,2.10
2022-10-16T16:51:49.608Z,2.58
2022-10-16T16:54:16.373Z,2.35
2022-10-16T16:56:45.742Z,2.03
2022-10-16T16:59:16.355Z,4.13
2022-10-16T17:01:42.936Z,1.88
2022-10-16T17:04:09.646Z,2.00
2022-10-16T17:06:36.059Z,2.70
2022-10-16T17:09:04.231Z,2.45
2022-10-16T17:11:33.945Z,1.67
2022-10-16T17:14:01.345Z,3.85
2022-10-16T17:16:32.368Z,2.20
2022-10-16T17:21:26.843Z,2.30
2022-10-16T17:23:53.649Z,2.00
2022-10-16T17:26:20.045Z,1.65
2022-10-16T17:28:46.477Z,2.00
2022-10-16T17:31:12.934Z,1.80
2022-10-16T17:33:39.670Z,1.80
2022-10-16T17:36:06.509Z,4.28
2022-10-16T17:38:33.010Z,2.15
2022-10-16T17:40:59.426Z,1.60
2022-10-16T17:43:25.833Z,1.15
2022-10-16T17:45:54.229Z,1.75
2022-10-16T17:48:20.677Z,1.17
2022-10-16T17:50:47.061Z,1.10
2022-10-16T17:53:14.080Z,1.40
2022-10-16T17:55:41.290Z,1.08
2022-10-16T17:58:07.605Z,1.00
2022-10-16T18:00:34.073Z,1.50
2022-10-16T18:03:00.528Z,1.10
2022-10-16T18:05:26.877Z,1.33
2022-10-16T18:07:53.536Z,0.73
2022-10-16T18:10:21.101Z,1.17
2022-10-16T18:12:47.928Z,1.10
2022-10-16T18:15:14.396Z,1.48
2022-10-16T18:17:41.003Z,1.30
2022-10-16T18:20:08.241Z,2.83
2022-10-16T18:22:38.208Z,1.75
2022-10-16T18:25:07.855Z,1.33
2022-10-16T18:27:34.291Z,1.23
2022-10-16T18:30:00.718Z,1.30
2022-10-16T18:32:27.691Z,0.90
2022-10-16T18:34:54.451Z,1.10
2022-10-16T18:37:21.298Z,1.20
2022-10-16T18:39:48.908Z,1.20
2022-10-16T18:42:15.922Z,1.20
2022-10-16T18:44:42.300Z,1.77
2022-10-16T18:47:08.777Z,1.60
2022-10-16T18:49:35.306Z,1.70
2022-10-16T18:52:03.232Z,2.90
2022-10-16T18:54:30.269Z,4.55
2022-10-16T18:56:56.670Z,2.00
2022-10-16T18:59:23.593Z,2.38
2022-10-16T19:01:50.228Z,2.40
2022-10-16T19:04:17.228Z,5.35
2022-10-16T19:06:45.318Z,3.17
2022-10-16T19:09:12.114Z,3.83
2022-10-16T19:11:41.548Z,2.60
2022-10-16T19:14:08.805Z,1.75
2022-10-16T19:16:35.789Z,2.22
2022-10-16T19:19:03.753Z,1.73
2022-10-16T19:21:30.345Z,1.88
2022-10-16T19:24:00.739Z,2.90
2022-10-16T19:26:28.176Z,1.60
2022-10-16T19:28:55.354Z,3.22
2022-10-16T19:31:22.671Z,3.20
2022-10-16T19:33:52.976Z,2.67
2022-10-16T19:36:21.095Z,3.10
2022-10-16T19:38:47.513Z,1.83
2022-10-16T19:41:15.644Z,1.50
2022-10-16T19:43:42.457Z,1.70
2022-10-16T19:46:12.323Z,2.72
2022-10-16T19:48:40.047Z,1.67
2022-10-16T19:51:07.297Z,1.70
2022-10-16T19:53:33.670Z,2.35
2022-10-16T19:56:00.406Z,1.85
2022-10-16T19:58:26.904Z,2.20
2022-10-16T20:00:54.721Z,1.73
2022-10-16T20:03:23.199Z,1.63
2022-10-16T20:05:56.811Z,2.38
2022-10-16T20:08:23.546Z,1.52
2022-10-16T20:10:53.975Z,2.28
2022-10-16T20:13:21.313Z,2.80
2022-10-16T20:15:50.005Z,1.83
2022-10-16T20:18:16.837Z,1.90
2022-10-16T20:20:44.989Z,3.67
2022-10-16T20:23:11.690Z,3.38
2022-10-16T20:25:39.061Z,2.97
2022-10-16T20:28:06.219Z,1.52
2022-10-16T20:30:40.709Z,2.05
2022-10-16T20:33:10.654Z,1.70
2022-10-16T20:35:55.169Z,2.00
2022-10-16T20:38:21.483Z,2.03
2022-10-16T20:40:48.663Z,2.20
2022-10-16T20:43:16.140Z,1.50
2022-10-16T20:45:42.869Z,1.80
2022-10-16T20:48:11.195Z,2.20
2022-10-16T20:50:41.362Z,1.88
2022-10-16T20:53:08.344Z,2.97
2022-10-16T20:55:35.801Z,2.03
2022-10-16T20:58:02.252Z,2.53
2022-10-16T21:00:28.687Z,4.05
2022-10-16T21:02:55.300Z,2.25
2022-10-16T21:05:21.696Z,2.88
2022-10-16T21:07:50.378Z,2.30
2022-10-16T21:10:16.845Z,2.13
2022-10-16T21:12:43.228Z,2.47
2022-10-16T21:15:14.889Z,2.05
2022-10-16T21:17:41.865Z,1.95
2022-10-16T21:20:08.447Z,2.20
2022-10-16T21:22:34.857Z,2.20
2022-10-16T21:25:04.977Z,1.75
2022-10-16T21:27:35.906Z,2.10
2022-10-16T21:30:02.304Z,2.83
2022-10-16T21:32:29.007Z,3.83
2022-10-16T21:34:55.641Z,2.25
2022-10-16T21:37:22.055Z,3.05
2022-10-16T21:39:48.403Z,2.50
2022-10-16T21:42:14.757Z,1.80
2022-10-16T21:44:41.141Z,2.22
2022-10-16T21:47:07.610Z,2.05
2022-10-16T21:49:33.972Z,4.25
2022-10-16T21:52:00.346Z,3.25
2022-10-16T21:54:26.682Z,1.98
2022-10-16T21:56:53.190Z,3.83
2022-10-16T21:59:19.698Z,1.70
2022-10-16T22:01:46.107Z,1.90
2022-10-16T22:04:13.427Z,1.80
2022-10-16T22:06:39.818Z,1.92
2022-10-16T22:09:06.203Z,2.67
2022-10-16T22:11:37.082Z,3.17
2022-10-16T22:16:30.397Z,2.95
2022-10-16T22:18:57.911Z,1.90
2022-10-16T22:21:24.451Z,1.90
2022-10-16T22:23:50.832Z,2.13
2022-10-16T22:26:17.340Z,2.60
2022-10-16T22:28:43.694Z,2.95
2022-10-16T22:31:12.984Z,1.50
2022-10-16T22:33:39.568Z,2.10
2022-10-16T22:36:07.043Z,1.70
2022-10-16T22:38:34.082Z,2.70
2022-10-16T22:41:04.923Z,2.42
2022-10-16T22:43:31.606Z,3.22
2022-10-16T22:46:04.864Z,2.30
2022-10-16T22:48:31.297Z,2.53
2022-10-16T22:50:57.697Z,2.28
2022-10-16T22:53:24.083Z,2.00
2022-10-16T22:55:50.524Z,2.25
2022-10-16T22:58:16.849Z,2.22
2022-10-16T23:00:44.650Z,2.22
2022-10-16T23:03:11.301Z,2.10
2022-10-16T23:05:38.736Z,2.40
2022-10-16T23:08:08.001Z,1.98
2022-10-16T23:10:34.803Z,1.88
2022-10-16T23:13:01.324Z,2.90
2022-10-16T23:15:27.765Z,1.88
2022-10-16T23:17:54.115Z,1.70
2022-10-16T23:20:20.462Z,2.35
2022-10-16T23:22:46.814Z,2.63
2022-10-16T23:25:13.196Z,1.45
2022-10-16T23:27:39.637Z,1.73
2022-10-16T23:30:06.988Z,1.77
2022-10-16T23:32:33.762Z,2.63
2022-10-16T23:35:00.326Z,1.85
2022-10-16T23:37:26.761Z,1.98
2022-10-16T23:39:54.133Z,2.38
2022-10-16T23:42:20.477Z,2.00
2022-10-16T23:44:46.824Z,2.28
2022-10-16T23:47:13.209Z,2.17
2022-10-16T23:49:39.559Z,2.10
2022-10-16T23:52:07.015Z,2.10
2022-10-16T23:54:33.349Z,1.67
2022-10-16T23:56:59.783Z,2.20
2022-10-16T23:59:26.265Z,1.25
